sensor_id;sensor_type;location;lat;lon;timestamp;temperature;humidity
38941;DHT22;43236;47.208;7.518;2022-08-19T00:00:03;22.40;99.90
38941;DHT22;43236;47.208;7.518;2022-08-19T00:02:50;22.40;99.90
38941;DHT22;43236;47.208;7.518;2022-08-19T00:05:37;22.40;99.90
38941;DHT22;43236;47.208;7.518;2022-08-19T00:08:26;22.40;99.90
38941;DHT22;43236;47.208;7.518;2022-08-19T00:11:14;22.40;99.90
38941;DHT22;43236;47.208;7.518;2022-08-19T00:14:02;22.40;99.90
38941;DHT22;43236;47.208;7.518;2022-08-19T00:16:50;22.40;99.90
38941;DHT22;43236;47.208;7.518;2022-08-19T00:19:40;22.40;99.90
38941;DHT22;43236;47.208;7.518;2022-08-19T00:22:27;22.40;99.90
38941;DHT22;43236;47.208;7.518;2022-08-19T00:25:15;22.40;99.90
38941;DHT22;43236;47.208;7.518;2022-08-19T00:28:04;22.40;99.90
38941;DHT22;43236;47.208;7.518;2022-08-19T00:30:51;22.40;99.90
38941;DHT22;43236;47.208;7.518;2022-08-19T00:33:38;22.40;99.90
38941;DHT22;43236;47.208;7.518;2022-08-19T00:36:26;22.40;99.90
38941;DHT22;43236;47.208;7.518;2022-08-19T00:39:15;22.40;99.90
38941;DHT22;43236;47.208;7.518;2022-08-19T00:42:03;22.30;99.90
38941;DHT22;43236;47.208;7.518;2022-08-19T00:44:51;22.30;99.90
38941;DHT22;43236;47.208;7.518;2022-08-19T00:47:38;22.30;99.90
38941;DHT22;43236;47.208;7.518;2022-08-19T00:50:26;22.30;99.90
38941;DHT22;43236;47.208;7.518;2022-08-19T00:53:16;22.30;99.90
38941;DHT22;43236;47.208;7.518;2022-08-19T00:56:05;22.30;99.90
38941;DHT22;43236;47.208;7.518;2022-08-19T00:58:55;22.30;99.90
38941;DHT22;43236;47.208;7.518;2022-08-19T01:01:45;22.30;99.90
38941;DHT22;43236;47.208;7.518;2022-08-19T01:04:33;22.30;99.90
38941;DHT22;43236;47.208;7.518;2022-08-19T01:07:20;22.30;99.90
38941;DHT22;43236;47.208;7.518;2022-08-19T01:10:10;22.30;99.90
38941;DHT22;43236;47.208;7.518;2022-08-19T01:12:59;22.20;99.90
38941;DHT22;43236;47.208;7.518;2022-08-19T01:15:50;22.20;99.90
38941;DHT22;43236;47.208;7.518;2022-08-19T01:18:41;22.20;99.90
38941;DHT22;43236;47.208;7.518;2022-08-19T01:21:32;22.20;99.90
38941;DHT22;43236;47.208;7.518;2022-08-19T01:24:22;22.20;99.90
38941;DHT22;43236;47.208;7.518;2022-08-19T01:27:10;22.20;99.90
38941;DHT22;43236;47.208;7.518;2022-08-19T01:29:57;22.20;99.90
38941;DHT22;43236;47.208;7.518;2022-08-19T01:32:44;22.20;99.90
38941;DHT22;43236;47.208;7.518;2022-08-19T01:35:31;22.20;99.90
38941;DHT22;43236;47.208;7.518;2022-08-19T01:38:22;22.20;99.90
38941;DHT22;43236;47.208;7.518;2022-08-19T01:41:11;22.20;99.90
38941;DHT22;43236;47.208;7.518;2022-08-19T01:43:58;22.20;99.90
38941;DHT22;43236;47.208;7.518;2022-08-19T01:46:48;22.20;99.90
38941;DHT22;43236;47.208;7.518;2022-08-19T01:49:35;22.20;99.90
38941;DHT22;43236;47.208;7.518;2022-08-19T01:52:22;22.30;99.90
38941;DHT22;43236;47.208;7.518;2022-08-19T01:55:17;22.20;99.90
38941;DHT22;43236;47.208;7.518;2022-08-19T01:58:08;22.20;99.90
38941;DHT22;43236;47.208;7.518;2022-08-19T02:00:57;22.20;99.90
38941;DHT22;43236;47.208;7.518;2022-08-19T02:03:44;22.10;99.90
38941;DHT22;43236;47.208;7.518;2022-08-19T02:06:32;22.10;99.90
38941;DHT22;43236;47.208;7.518;2022-08-19T02:09:19;22.10;99.90
38941;DHT22;43236;47.208;7.518;2022-08-19T02:12:07;22.10;99.90
38941;DHT22;43236;47.208;7.518;2022-08-19T02:14:56;22.10;99.90
38941;DHT22;43236;47.208;7.518;2022-08-19T02:17:43;22.10;99.90
38941;DHT22;43236;47.208;7.518;2022-08-19T02:20:30;22.10;99.90
38941;DHT22;43236;47.208;7.518;2022-08-19T02:23:17;22.10;99.90
38941;DHT22;43236;47.208;7.518;2022-08-19T02:26:04;22.10;99.90
38941;DHT22;43236;47.208;7.518;2022-08-19T02:28:52;22.10;99.90
38941;DHT22;43236;47.208;7.518;2022-08-19T02:31:41;22.10;99.90
38941;DHT22;43236;47.208;7.518;2022-08-19T02:34:28;22.10;99.90
38941;DHT22;43236;47.208;7.518;2022-08-19T02:37:15;22.10;99.90
38941;DHT22;43236;47.208;7.518;2022-08-19T02:40:16;22.10;99.90
38941;DHT22;43236;47.208;7.518;2022-08-19T02:43:05;22.10;99.90
38941;DHT22;43236;47.208;7.518;2022-08-19T02:45:54;22.10;99.90
38941;DHT22;43236;47.208;7.518;2022-08-19T02:48:42;22.10;99.90
38941;DHT22;43236;47.208;7.518;2022-08-19T02:51:35;22.00;99.90
38941;DHT22;43236;47.208;7.518;2022-08-19T02:54:22;22.10;99.90
38941;DHT22;43236;47.208;7.518;2022-08-19T02:57:10;22.00;99.90
38941;DHT22;43236;47.208;7.518;2022-08-19T02:59:57;22.00;99.90
38941;DHT22;43236;47.208;7.518;2022-08-19T03:02:44;22.00;99.90
38941;DHT22;43236;47.208;7.518;2022-08-19T03:05:33;22.00;99.90
38941;DHT22;43236;47.208;7.518;2022-08-19T03:08:20;22.00;99.90
38941;DHT22;43236;47.208;7.518;2022-08-19T03:11:13;21.90;99.90
38941;DHT22;43236;47.208;7.518;2022-08-19T03:14:02;21.90;99.90
38941;DHT22;43236;47.208;7.518;2022-08-19T03:16:52;21.90;99.90
38941;DHT22;43236;47.208;7.518;2022-08-19T03:19:39;21.90;99.90
38941;DHT22;43236;47.208;7.518;2022-08-19T03:22:28;21.90;99.90
38941;DHT22;43236;47.208;7.518;2022-08-19T03:25:15;21.90;99.90
38941;DHT22;43236;47.208;7.518;2022-08-19T03:28:03;21.80;99.90
38941;DHT22;43236;47.208;7.518;2022-08-19T03:30:58;21.80;99.90
38941;DHT22;43236;47.208;7.518;2022-08-19T03:33:45;21.80;99.90
38941;DHT22;43236;47.208;7.518;2022-08-19T03:36:33;21.70;99.90
38941;DHT22;43236;47.208;7.518;2022-08-19T03:39:22;21.70;99.90
38941;DHT22;43236;47.208;7.518;2022-08-19T03:42:09;21.70;99.90
38941;DHT22;43236;47.208;7.518;2022-08-19T03:44:57;21.70;99.90
38941;DHT22;43236;47.208;7.518;2022-08-19T03:47:44;21.70;99.90
38941;DHT22;43236;47.208;7.518;2022-08-19T03:50:32;21.80;99.90
38941;DHT22;43236;47.208;7.518;2022-08-19T03:53:19;21.80;99.90
38941;DHT22;43236;47.208;7.518;2022-08-19T03:56:08;21.80;99.90
38941;DHT22;43236;47.208;7.518;2022-08-19T03:58:56;21.80;99.90
38941;DHT22;43236;47.208;7.518;2022-08-19T04:01:45;21.80;99.90
38941;DHT22;43236;47.208;7.518;2022-08-19T04:04:32;21.80;99.90
38941;DHT22;43236;47.208;7.518;2022-08-19T04:07:20;21.80;99.90
38941;DHT22;43236;47.208;7.518;2022-08-19T04:10:07;21.80;99.90
38941;DHT22;43236;47.208;7.518;2022-08-19T04:12:56;21.80;99.90
38941;DHT22;43236;47.208;7.518;2022-08-19T04:15:44;21.80;99.90
38941;DHT22;43236;47.208;7.518;2022-08-19T04:18:33;21.80;99.90
38941;DHT22;43236;47.208;7.518;2022-08-19T04:21:22;21.80;99.90
38941;DHT22;43236;47.208;7.518;2022-08-19T04:24:11;21.80;99.90
38941;DHT22;43236;47.208;7.518;2022-08-19T04:26:59;21.70;99.90
38941;DHT22;43236;47.208;7.518;2022-08-19T04:29:47;21.70;99.90
38941;DHT22;43236;47.208;7.518;2022-08-19T04:32:35;21.60;99.90
38941;DHT22;43236;47.208;7.518;2022-08-19T04:35:22;21.60;99.90
38941;DHT22;43236;47.208;7.518;2022-08-19T04:38:10;21.60;99.90
38941;DHT22;43236;47.208;7.518;2022-08-19T04:40:57;21.60;99.90
38941;DHT22;43236;47.208;7.518;2022-08-19T04:44:02;21.70;99.90
38941;DHT22;43236;47.208;7.518;2022-08-19T04:46:51;21.60;99.90
38941;DHT22;43236;47.208;7.518;2022-08-19T04:49:38;21.60;99.90
38941;DHT22;43236;47.208;7.518;2022-08-19T04:52:25;21.60;99.90
38941;DHT22;43236;47.208;7.518;2022-08-19T04:55:13;21.60;99.90
38941;DHT22;43236;47.208;7.518;2022-08-19T04:58:00;21.60;99.90
38941;DHT22;43236;47.208;7.518;2022-08-19T05:00:48;21.60;99.90
38941;DHT22;43236;47.208;7.518;2022-08-19T05:03:36;21.70;99.90
38941;DHT22;43236;47.208;7.518;2022-08-19T05:06:24;21.70;99.90
38941;DHT22;43236;47.208;7.518;2022-08-19T05:09:11;21.70;99.90
38941;DHT22;43236;47.208;7.518;2022-08-19T05:11:58;21.80;99.90
38941;DHT22;43236;47.208;7.518;2022-08-19T05:14:46;21.70;99.90
38941;DHT22;43236;47.208;7.518;2022-08-19T05:17:33;21.70;99.90
38941;DHT22;43236;47.208;7.518;2022-08-19T05:20:22;21.70;99.90
38941;DHT22;43236;47.208;7.518;2022-08-19T05:23:26;21.70;99.90
38941;DHT22;43236;47.208;7.518;2022-08-19T05:26:16;21.70;99.90
38941;DHT22;43236;47.208;7.518;2022-08-19T05:29:04;21.70;99.90
38941;DHT22;43236;47.208;7.518;2022-08-19T05:31:53;21.70;99.90
38941;DHT22;43236;47.208;7.518;2022-08-19T05:34:40;21.70;99.90
38941;DHT22;43236;47.208;7.518;2022-08-19T05:37:29;21.70;99.90
38941;DHT22;43236;47.208;7.518;2022-08-19T05:40:17;21.80;99.90
38941;DHT22;43236;47.208;7.518;2022-08-19T05:43:06;21.80;99.90
38941;DHT22;43236;47.208;7.518;2022-08-19T05:45:53;21.80;99.90
38941;DHT22;43236;47.208;7.518;2022-08-19T05:48:42;21.80;99.90
38941;DHT22;43236;47.208;7.518;2022-08-19T05:51:29;21.80;99.90
38941;DHT22;43236;47.208;7.518;2022-08-19T05:54:18;21.70;99.90
38941;DHT22;43236;47.208;7.518;2022-08-19T05:57:06;21.70;99.90
38941;DHT22;43236;47.208;7.518;2022-08-19T05:59:53;21.80;99.90
38941;DHT22;43236;47.208;7.518;2022-08-19T06:02:40;21.80;99.90
38941;DHT22;43236;47.208;7.518;2022-08-19T06:05:28;21.80;99.90
38941;DHT22;43236;47.208;7.518;2022-08-19T06:08:15;21.80;99.90
38941;DHT22;43236;47.208;7.518;2022-08-19T06:11:17;21.80;99.90
38941;DHT22;43236;47.208;7.518;2022-08-19T06:14:07;21.80;99.90
38941;DHT22;43236;47.208;7.518;2022-08-19T06:16:55;21.80;99.90
38941;DHT22;43236;47.208;7.518;2022-08-19T06:19:43;21.80;99.90
38941;DHT22;43236;47.208;7.518;2022-08-19T06:22:30;21.80;99.90
38941;DHT22;43236;47.208;7.518;2022-08-19T06:25:18;21.80;99.90
38941;DHT22;43236;47.208;7.518;2022-08-19T06:28:06;21.80;99.90
38941;DHT22;43236;47.208;7.518;2022-08-19T06:30:53;21.80;99.90
38941;DHT22;43236;47.208;7.518;2022-08-19T06:33:40;21.90;99.90
38941;DHT22;43236;47.208;7.518;2022-08-19T06:36:30;21.80;99.90
38941;DHT22;43236;47.208;7.518;2022-08-19T06:39:22;21.80;99.90
38941;DHT22;43236;47.208;7.518;2022-08-19T06:42:11;21.80;99.90
38941;DHT22;43236;47.208;7.518;2022-08-19T06:45:03;21.80;99.90
38941;DHT22;43236;47.208;7.518;2022-08-19T06:47:51;21.80;99.90
38941;DHT22;43236;47.208;7.518;2022-08-19T06:50:40;21.80;99.90
38941;DHT22;43236;47.208;7.518;2022-08-19T06:53:27;21.80;99.90
38941;DHT22;43236;47.208;7.518;2022-08-19T06:56:17;21.80;99.90
38941;DHT22;43236;47.208;7.518;2022-08-19T06:59:07;21.80;99.90
38941;DHT22;43236;47.208;7.518;2022-08-19T07:01:56;21.80;99.90
38941;DHT22;43236;47.208;7.518;2022-08-19T07:04:44;21.80;99.90
38941;DHT22;43236;47.208;7.518;2022-08-19T07:07:31;21.80;99.90
38941;DHT22;43236;47.208;7.518;2022-08-19T07:10:19;21.80;99.90
38941;DHT22;43236;47.208;7.518;2022-08-19T07:13:07;21.80;99.90
38941;DHT22;43236;47.208;7.518;2022-08-19T07:15:54;21.80;99.90
38941;DHT22;43236;47.208;7.518;2022-08-19T07:18:43;21.80;99.90
38941;DHT22;43236;47.208;7.518;2022-08-19T07:21:35;21.80;99.90
38941;DHT22;43236;47.208;7.518;2022-08-19T07:24:25;21.70;99.90
38941;DHT22;43236;47.208;7.518;2022-08-19T07:27:13;21.70;99.90
38941;DHT22;43236;47.208;7.518;2022-08-19T07:30:03;21.70;99.90
38941;DHT22;43236;47.208;7.518;2022-08-19T07:32:50;21.70;99.90
38941;DHT22;43236;47.208;7.518;2022-08-19T07:35:39;21.70;99.90
38941;DHT22;43236;47.208;7.518;2022-08-19T07:38:27;21.70;99.90
38941;DHT22;43236;47.208;7.518;2022-08-19T07:41:18;21.70;99.90
38941;DHT22;43236;47.208;7.518;2022-08-19T07:44:06;21.80;99.90
38941;DHT22;43236;47.208;7.518;2022-08-19T07:46:56;21.80;99.90
38941;DHT22;43236;47.208;7.518;2022-08-19T07:49:43;21.80;99.90
38941;DHT22;43236;47.208;7.518;2022-08-19T07:52:32;21.80;99.90
38941;DHT22;43236;47.208;7.518;2022-08-19T07:55:25;21.90;99.90
38941;DHT22;43236;47.208;7.518;2022-08-19T07:58:15;21.90;99.90
38941;DHT22;43236;47.208;7.518;2022-08-19T08:01:04;21.90;99.90
38941;DHT22;43236;47.208;7.518;2022-08-19T08:03:55;21.90;99.90
38941;DHT22;43236;47.208;7.518;2022-08-19T08:07:00;21.90;99.90
38941;DHT22;43236;47.208;7.518;2022-08-19T08:10:07;21.90;99.90
38941;DHT22;43236;47.208;7.518;2022-08-19T08:12:55;21.90;99.90
38941;DHT22;43236;47.208;7.518;2022-08-19T08:15:42;21.90;99.90
38941;DHT22;43236;47.208;7.518;2022-08-19T08:18:30;21.90;99.90
38941;DHT22;43236;47.208;7.518;2022-08-19T08:21:17;21.80;99.90
38941;DHT22;43236;47.208;7.518;2022-08-19T08:24:04;21.90;99.90
38941;DHT22;43236;47.208;7.518;2022-08-19T08:26:53;21.90;99.90
38941;DHT22;43236;47.208;7.518;2022-08-19T08:29:40;21.90;99.90
38941;DHT22;43236;47.208;7.518;2022-08-19T08:32:27;21.90;99.90
38941;DHT22;43236;47.208;7.518;2022-08-19T08:35:16;22.00;99.90
38941;DHT22;43236;47.208;7.518;2022-08-19T08:38:03;22.00;99.90
38941;DHT22;43236;47.208;7.518;2022-08-19T08:40:53;21.90;99.90
38941;DHT22;43236;47.208;7.518;2022-08-19T08:43:45;21.90;99.90
38941;DHT22;43236;47.208;7.518;2022-08-19T08:46:36;21.90;99.90
38941;DHT22;43236;47.208;7.518;2022-08-19T08:49:33;22.00;99.90
38941;DHT22;43236;47.208;7.518;2022-08-19T08:52:26;22.10;99.90
38941;DHT22;43236;47.208;7.518;2022-08-19T08:55:16;22.10;99.90
38941;DHT22;43236;47.208;7.518;2022-08-19T08:58:06;22.20;99.90
38941;DHT22;43236;47.208;7.518;2022-08-19T09:01:00;22.20;99.90
38941;DHT22;43236;47.208;7.518;2022-08-19T09:03:48;22.20;99.90
38941;DHT22;43236;47.208;7.518;2022-08-19T09:06:39;22.20;99.90
38941;DHT22;43236;47.208;7.518;2022-08-19T09:09:32;22.30;99.90
38941;DHT22;43236;47.208;7.518;2022-08-19T09:12:27;22.30;99.90
38941;DHT22;43236;47.208;7.518;2022-08-19T09:15:25;22.30;99.90
38941;DHT22;43236;47.208;7.518;2022-08-19T09:18:15;22.40;99.90
38941;DHT22;43236;47.208;7.518;2022-08-19T09:21:03;22.40;99.90
38941;DHT22;43236;47.208;7.518;2022-08-19T09:23:50;22.50;99.90
38941;DHT22;43236;47.208;7.518;2022-08-19T09:26:37;22.50;99.90
38941;DHT22;43236;47.208;7.518;2022-08-19T09:29:24;22.60;99.90
38941;DHT22;43236;47.208;7.518;2022-08-19T09:32:11;22.60;99.90
38941;DHT22;43236;47.208;7.518;2022-08-19T09:35:00;22.60;99.90
38941;DHT22;43236;47.208;7.518;2022-08-19T09:37:47;22.60;99.90
38941;DHT22;43236;47.208;7.518;2022-08-19T09:40:34;22.60;99.90
38941;DHT22;43236;47.208;7.518;2022-08-19T09:43:22;22.60;99.90
38941;DHT22;43236;47.208;7.518;2022-08-19T09:46:09;22.60;99.90
38941;DHT22;43236;47.208;7.518;2022-08-19T09:48:58;22.50;99.90
38941;DHT22;43236;47.208;7.518;2022-08-19T09:51:49;22.60;99.90
38941;DHT22;43236;47.208;7.518;2022-08-19T09:54:36;22.70;99.90
38941;DHT22;43236;47.208;7.518;2022-08-19T09:57:23;22.70;99.90
38941;DHT22;43236;47.208;7.518;2022-08-19T10:00:11;22.80;99.90
38941;DHT22;43236;47.208;7.518;2022-08-19T10:02:58;23.00;99.90
38941;DHT22;43236;47.208;7.518;2022-08-19T10:05:45;23.10;99.90
38941;DHT22;43236;47.208;7.518;2022-08-19T10:08:37;23.20;99.90
38941;DHT22;43236;47.208;7.518;2022-08-19T10:11:25;23.10;99.90
38941;DHT22;43236;47.208;7.518;2022-08-19T10:14:13;23.10;99.90
38941;DHT22;43236;47.208;7.518;2022-08-19T10:17:02;23.10;99.90
38941;DHT22;43236;47.208;7.518;2022-08-19T10:19:49;23.10;99.90
38941;DHT22;43236;47.208;7.518;2022-08-19T10:22:37;23.00;99.90
38941;DHT22;43236;47.208;7.518;2022-08-19T10:25:25;23.10;99.90
38941;DHT22;43236;47.208;7.518;2022-08-19T10:28:13;23.10;99.90
38941;DHT22;43236;47.208;7.518;2022-08-19T10:31:04;23.20;99.90
38941;DHT22;43236;47.208;7.518;2022-08-19T10:33:52;23.00;99.90
38941;DHT22;43236;47.208;7.518;2022-08-19T10:36:43;23.10;99.90
38941;DHT22;43236;47.208;7.518;2022-08-19T10:39:33;23.10;99.90
38941;DHT22;43236;47.208;7.518;2022-08-19T10:42:22;23.00;99.90
38941;DHT22;43236;47.208;7.518;2022-08-19T10:45:10;23.00;99.90
38941;DHT22;43236;47.208;7.518;2022-08-19T10:47:57;23.10;99.90
38941;DHT22;43236;47.208;7.518;2022-08-19T10:50:44;23.10;99.90
38941;DHT22;43236;47.208;7.518;2022-08-19T10:53:49;23.20;99.90
38941;DHT22;43236;47.208;7.518;2022-08-19T10:56:36;23.20;99.90
38941;DHT22;43236;47.208;7.518;2022-08-19T10:59:39;23.20;99.90
38941;DHT22;43236;47.208;7.518;2022-08-19T11:02:26;23.20;99.90
38941;DHT22;43236;47.208;7.518;2022-08-19T11:05:14;23.10;99.90
38941;DHT22;43236;47.208;7.518;2022-08-19T11:08:03;23.10;99.90
38941;DHT22;43236;47.208;7.518;2022-08-19T11:10:52;23.00;99.90
38941;DHT22;43236;47.208;7.518;2022-08-19T11:13:47;22.90;99.90
38941;DHT22;43236;47.208;7.518;2022-08-19T11:16:38;22.90;99.90
38941;DHT22;43236;47.208;7.518;2022-08-19T11:19:25;22.80;99.90
38941;DHT22;43236;47.208;7.518;2022-08-19T11:22:13;22.90;99.90
38941;DHT22;43236;47.208;7.518;2022-08-19T11:25:00;22.80;99.90
38941;DHT22;43236;47.208;7.518;2022-08-19T11:27:48;22.70;99.90
38941;DHT22;43236;47.208;7.518;2022-08-19T11:30:37;22.70;99.90
38941;DHT22;43236;47.208;7.518;2022-08-19T11:33:26;22.70;99.90
38941;DHT22;43236;47.208;7.518;2022-08-19T11:36:14;22.70;99.90
38941;DHT22;43236;47.208;7.518;2022-08-19T11:39:03;22.70;99.90
38941;DHT22;43236;47.208;7.518;2022-08-19T11:41:50;22.70;99.90
38941;DHT22;43236;47.208;7.518;2022-08-19T11:44:38;22.70;99.90
38941;DHT22;43236;47.208;7.518;2022-08-19T11:47:25;22.70;99.90
38941;DHT22;43236;47.208;7.518;2022-08-19T11:50:13;22.80;99.90
38941;DHT22;43236;47.208;7.518;2022-08-19T11:53:00;22.80;99.90
38941;DHT22;43236;47.208;7.518;2022-08-19T11:55:48;22.80;99.90
38941;DHT22;43236;47.208;7.518;2022-08-19T11:58:35;22.90;99.90
38941;DHT22;43236;47.208;7.518;2022-08-19T12:01:25;23.00;99.90
38941;DHT22;43236;47.208;7.518;2022-08-19T12:04:13;23.10;99.90
38941;DHT22;43236;47.208;7.518;2022-08-19T12:07:01;23.20;99.90
38941;DHT22;43236;47.208;7.518;2022-08-19T12:09:49;23.30;99.90
38941;DHT22;43236;47.208;7.518;2022-08-19T12:12:36;23.40;99.90
38941;DHT22;43236;47.208;7.518;2022-08-19T12:15:26;23.40;99.90
38941;DHT22;43236;47.208;7.518;2022-08-19T12:18:14;23.40;99.90
38941;DHT22;43236;47.208;7.518;2022-08-19T12:21:01;23.40;99.90
38941;DHT22;43236;47.208;7.518;2022-08-19T12:23:50;23.40;99.90
38941;DHT22;43236;47.208;7.518;2022-08-19T12:26:38;23.30;99.90
38941;DHT22;43236;47.208;7.518;2022-08-19T12:29:25;23.20;99.90
38941;DHT22;43236;47.208;7.518;2022-08-19T12:32:14;23.20;99.90
38941;DHT22;43236;47.208;7.518;2022-08-19T12:35:03;23.10;99.90
38941;DHT22;43236;47.208;7.518;2022-08-19T12:37:50;23.00;99.90
38941;DHT22;43236;47.208;7.518;2022-08-19T12:40:38;23.00;99.90
38941;DHT22;43236;47.208;7.518;2022-08-19T12:43:26;22.90;99.90
38941;DHT22;43236;47.208;7.518;2022-08-19T12:46:16;22.90;99.90
38941;DHT22;43236;47.208;7.518;2022-08-19T12:49:04;22.90;99.90
38941;DHT22;43236;47.208;7.518;2022-08-19T12:51:51;22.90;99.90
38941;DHT22;43236;47.208;7.518;2022-08-19T12:54:38;22.90;99.90
38941;DHT22;43236;47.208;7.518;2022-08-19T12:57:28;22.90;99.90
38941;DHT22;43236;47.208;7.518;2022-08-19T13:00:21;22.90;99.90
38941;DHT22;43236;47.208;7.518;2022-08-19T13:03:08;23.10;99.90
38941;DHT22;43236;47.208;7.518;2022-08-19T13:05:55;23.20;99.90
38941;DHT22;43236;47.208;7.518;2022-08-19T13:08:42;23.40;99.90
38941;DHT22;43236;47.208;7.518;2022-08-19T13:11:30;23.50;99.90
38941;DHT22;43236;47.208;7.518;2022-08-19T13:14:20;23.60;99.90
38941;DHT22;43236;47.208;7.518;2022-08-19T13:17:07;23.70;99.90
38941;DHT22;43236;47.208;7.518;2022-08-19T13:19:54;23.90;99.90
38941;DHT22;43236;47.208;7.518;2022-08-19T13:22:41;24.00;99.90
38941;DHT22;43236;47.208;7.518;2022-08-19T13:25:30;24.00;99.90
38941;DHT22;43236;47.208;7.518;2022-08-19T13:28:17;24.00;99.90
38941;DHT22;43236;47.208;7.518;2022-08-19T13:31:05;24.10;99.90
38941;DHT22;43236;47.208;7.518;2022-08-19T13:34:10;24.10;99.90
38941;DHT22;43236;47.208;7.518;2022-08-19T13:36:58;24.00;99.90
38941;DHT22;43236;47.208;7.518;2022-08-19T13:39:45;23.90;99.90
38941;DHT22;43236;47.208;7.518;2022-08-19T13:42:34;23.80;99.90
38941;DHT22;43236;47.208;7.518;2022-08-19T13:45:23;23.60;99.90
38941;DHT22;43236;47.208;7.518;2022-08-19T13:48:12;23.60;99.90
38941;DHT22;43236;47.208;7.518;2022-08-19T13:50:59;23.50;99.90
38941;DHT22;43236;47.208;7.518;2022-08-19T13:53:46;23.50;99.90
38941;DHT22;43236;47.208;7.518;2022-08-19T13:56:34;23.50;99.90
38941;DHT22;43236;47.208;7.518;2022-08-19T13:59:21;23.60;99.90
38941;DHT22;43236;47.208;7.518;2022-08-19T14:02:08;23.70;99.90
38941;DHT22;43236;47.208;7.518;2022-08-19T14:04:58;23.80;99.90
38941;DHT22;43236;47.208;7.518;2022-08-19T14:07:45;23.90;99.90
38941;DHT22;43236;47.208;7.518;2022-08-19T14:10:33;23.90;99.90
38941;DHT22;43236;47.208;7.518;2022-08-19T14:13:21;24.00;99.90
38941;DHT22;43236;47.208;7.518;2022-08-19T14:16:10;23.90;99.90
38941;DHT22;43236;47.208;7.518;2022-08-19T14:18:57;23.90;99.90
38941;DHT22;43236;47.208;7.518;2022-08-19T14:21:46;23.90;99.90
38941;DHT22;43236;47.208;7.518;2022-08-19T14:24:33;23.90;99.90
38941;DHT22;43236;47.208;7.518;2022-08-19T14:27:20;23.80;99.90
38941;DHT22;43236;47.208;7.518;2022-08-19T14:30:13;23.70;99.90
38941;DHT22;43236;47.208;7.518;2022-08-19T14:33:02;23.60;99.90
38941;DHT22;43236;47.208;7.518;2022-08-19T14:35:50;23.50;99.90
38941;DHT22;43236;47.208;7.518;2022-08-19T14:38:39;23.40;99.90
38941;DHT22;43236;47.208;7.518;2022-08-19T14:41:26;23.40;99.90
38941;DHT22;43236;47.208;7.518;2022-08-19T14:44:14;23.30;99.90
38941;DHT22;43236;47.208;7.518;2022-08-19T14:47:01;23.20;99.90
38941;DHT22;43236;47.208;7.518;2022-08-19T14:49:48;23.20;99.90
38941;DHT22;43236;47.208;7.518;2022-08-19T14:52:35;23.20;99.90
38941;DHT22;43236;47.208;7.518;2022-08-19T14:55:23;23.20;99.90
38941;DHT22;43236;47.208;7.518;2022-08-19T14:58:11;23.20;99.90
38941;DHT22;43236;47.208;7.518;2022-08-19T15:00:58;23.10;99.90
38941;DHT22;43236;47.208;7.518;2022-08-19T15:03:47;23.10;99.90
38941;DHT22;43236;47.208;7.518;2022-08-19T15:06:34;23.10;99.90
38941;DHT22;43236;47.208;7.518;2022-08-19T15:09:21;23.10;99.90
38941;DHT22;43236;47.208;7.518;2022-08-19T15:12:09;23.00;99.90
38941;DHT22;43236;47.208;7.518;2022-08-19T15:14:56;22.90;99.90
38941;DHT22;43236;47.208;7.518;2022-08-19T15:17:44;23.00;99.90
38941;DHT22;43236;47.208;7.518;2022-08-19T15:20:32;22.90;99.90
38941;DHT22;43236;47.208;7.518;2022-08-19T15:23:19;22.90;99.90
38941;DHT22;43236;47.208;7.518;2022-08-19T15:26:07;22.90;99.90
38941;DHT22;43236;47.208;7.518;2022-08-19T15:28:57;23.00;99.90
38941;DHT22;43236;47.208;7.518;2022-08-19T15:31:45;23.10;99.90
38941;DHT22;43236;47.208;7.518;2022-08-19T15:34:32;23.10;99.90
38941;DHT22;43236;47.208;7.518;2022-08-19T15:37:19;23.10;99.90
38941;DHT22;43236;47.208;7.518;2022-08-19T15:40:09;23.10;99.90
38941;DHT22;43236;47.208;7.518;2022-08-19T15:42:56;23.20;99.90
38941;DHT22;43236;47.208;7.518;2022-08-19T15:45:45;23.20;99.90
38941;DHT22;43236;47.208;7.518;2022-08-19T15:48:32;23.10;99.90
38941;DHT22;43236;47.208;7.518;2022-08-19T15:51:20;23.20;99.90
38941;DHT22;43236;47.208;7.518;2022-08-19T15:54:09;23.10;99.90
38941;DHT22;43236;47.208;7.518;2022-08-19T15:56:57;23.10;99.90
38941;DHT22;43236;47.208;7.518;2022-08-19T16:00:16;23.00;99.90
38941;DHT22;43236;47.208;7.518;2022-08-19T16:03:22;23.00;99.90
38941;DHT22;43236;47.208;7.518;2022-08-19T16:06:26;22.90;99.90
38941;DHT22;43236;47.208;7.518;2022-08-19T16:09:15;22.80;99.90
38941;DHT22;43236;47.208;7.518;2022-08-19T16:12:04;22.80;99.90
38941;DHT22;43236;47.208;7.518;2022-08-19T16:14:51;22.80;99.90
38941;DHT22;43236;47.208;7.518;2022-08-19T16:17:39;22.80;99.90
38941;DHT22;43236;47.208;7.518;2022-08-19T16:20:28;22.80;99.90
38941;DHT22;43236;47.208;7.518;2022-08-19T16:23:15;22.80;99.90
38941;DHT22;43236;47.208;7.518;2022-08-19T16:26:03;22.80;99.90
38941;DHT22;43236;47.208;7.518;2022-08-19T16:28:50;22.80;99.90
38941;DHT22;43236;47.208;7.518;2022-08-19T16:31:37;22.80;99.90
38941;DHT22;43236;47.208;7.518;2022-08-19T16:34:24;22.80;99.90
38941;DHT22;43236;47.208;7.518;2022-08-19T16:37:13;22.80;99.90
38941;DHT22;43236;47.208;7.518;2022-08-19T16:40:01;22.80;99.90
38941;DHT22;43236;47.208;7.518;2022-08-19T16:42:48;22.70;99.90
38941;DHT22;43236;47.208;7.518;2022-08-19T16:45:36;22.70;99.90
38941;DHT22;43236;47.208;7.518;2022-08-19T16:48:25;22.70;99.90
38941;DHT22;43236;47.208;7.518;2022-08-19T16:51:14;22.70;99.90
38941;DHT22;43236;47.208;7.518;2022-08-19T16:54:05;22.70;99.90
38941;DHT22;43236;47.208;7.518;2022-08-19T16:56:52;22.70;99.90
38941;DHT22;43236;47.208;7.518;2022-08-19T16:59:40;22.70;99.90
38941;DHT22;43236;47.208;7.518;2022-08-19T17:02:29;22.60;99.90
38941;DHT22;43236;47.208;7.518;2022-08-19T17:05:16;22.70;99.90
38941;DHT22;43236;47.208;7.518;2022-08-19T17:08:03;22.60;99.90
38941;DHT22;43236;47.208;7.518;2022-08-19T17:10:53;22.60;99.90
38941;DHT22;43236;47.208;7.518;2022-08-19T17:13:40;22.50;99.90
38941;DHT22;43236;47.208;7.518;2022-08-19T17:16:31;22.50;99.90
38941;DHT22;43236;47.208;7.518;2022-08-19T17:19:19;22.50;99.90
38941;DHT22;43236;47.208;7.518;2022-08-19T17:22:06;22.50;99.90
38941;DHT22;43236;47.208;7.518;2022-08-19T17:24:55;22.50;99.90
38941;DHT22;43236;47.208;7.518;2022-08-19T17:27:43;22.50;99.90
38941;DHT22;43236;47.208;7.518;2022-08-19T17:30:30;22.50;99.90
38941;DHT22;43236;47.208;7.518;2022-08-19T17:33:17;22.50;99.90
38941;DHT22;43236;47.208;7.518;2022-08-19T17:36:05;22.40;99.90
38941;DHT22;43236;47.208;7.518;2022-08-19T17:38:56;22.50;99.90
38941;DHT22;43236;47.208;7.518;2022-08-19T17:41:46;22.50;99.90
38941;DHT22;43236;47.208;7.518;2022-08-19T17:44:36;22.40;99.90